sensor_id;sensor_type;location;lat;lon;timestamp;pressure;altitude;pressure_sealevel;temperature;humidity
12793;BME280;6460;42.684;23.260;2022-08-07T00:02:10;94309.47;;;25.40;53.43
12793;BME280;6460;42.684;23.260;2022-08-07T00:04:37;94300.88;;;25.38;53.40
12793;BME280;6460;42.684;23.260;2022-08-07T00:07:04;94303.34;;;25.36;53.50
12793;BME280;6460;42.684;23.260;2022-08-07T00:09:31;94297.84;;;25.26;54.04
12793;BME280;6460;42.684;23.260;2022-08-07T00:11:59;94302.41;;;25.20;54.19
12793;BME280;6460;42.684;23.260;2022-08-07T00:14:26;94299.31;;;25.00;54.74
12793;BME280;6460;42.684;23.260;2022-08-07T00:16:55;94303.47;;;25.14;54.48
12793;BME280;6460;42.684;23.260;2022-08-07T00:19:24;94302.97;;;25.06;54.80
12793;BME280;6460;42.684;23.260;2022-08-07T00:21:53;94310.31;;;25.00;55.17
12793;BME280;6460;42.684;23.260;2022-08-07T00:24:20;94297.34;;;24.70;55.86
12793;BME280;6460;42.684;23.260;2022-08-07T00:26:47;94311.13;;;24.79;55.91
12793;BME280;6460;42.684;23.260;2022-08-07T00:29:15;94312.56;;;24.93;55.59
12793;BME280;6460;42.684;23.260;2022-08-07T00:31:44;94317.75;;;24.91;55.85
12793;BME280;6460;42.684;23.260;2022-08-07T00:34:11;94319.56;;;24.85;56.05
12793;BME280;6460;42.684;23.260;2022-08-07T00:36:40;94313.47;;;24.90;56.00
12793;BME280;6460;42.684;23.260;2022-08-07T00:39:07;94324.31;;;24.84;56.61
12793;BME280;6460;42.684;23.260;2022-08-07T00:41:34;94328.59;;;24.85;56.83
12793;BME280;6460;42.684;23.260;2022-08-07T00:44:01;94318.41;;;24.73;56.77
12793;BME280;6460;42.684;23.260;2022-08-07T00:46:29;94318.41;;;24.73;56.93
12793;BME280;6460;42.684;23.260;2022-08-07T00:48:57;94321.78;;;24.77;56.67
12793;BME280;6460;42.684;23.260;2022-08-07T00:51:27;94324.06;;;24.69;57.20
12793;BME280;6460;42.684;23.260;2022-08-07T00:53:56;94320.31;;;24.23;58.42
12793;BME280;6460;42.684;23.260;2022-08-07T00:56:23;94318.47;;;23.43;61.30
12793;BME280;6460;42.684;23.260;2022-08-07T00:58:50;94319.72;;;23.85;60.29
12793;BME280;6460;42.684;23.260;2022-08-07T01:01:18;94322.47;;;23.85;60.37
12793;BME280;6460;42.684;23.260;2022-08-07T01:03:46;94323.91;;;23.90;60.05
12793;BME280;6460;42.684;23.260;2022-08-07T01:06:13;94315.00;;;24.07;59.45
12793;BME280;6460;42.684;23.260;2022-08-07T01:08:41;94321.47;;;24.13;59.65
12793;BME280;6460;42.684;23.260;2022-08-07T01:11:10;94316.22;;;24.06;60.00
12793;BME280;6460;42.684;23.260;2022-08-07T01:13:38;94319.03;;;24.15;59.96
12793;BME280;6460;42.684;23.260;2022-08-07T01:16:06;94316.97;;;24.29;59.52
12793;BME280;6460;42.684;23.260;2022-08-07T01:18:35;94312.38;;;24.26;59.45
12793;BME280;6460;42.684;23.260;2022-08-07T01:21:10;94316.84;;;24.32;59.05
12793;BME280;6460;42.684;23.260;2022-08-07T01:23:39;94324.91;;;24.27;59.27
12793;BME280;6460;42.684;23.260;2022-08-07T01:26:07;94322.22;;;24.36;59.33
12793;BME280;6460;42.684;23.260;2022-08-07T01:28:35;94327.31;;;24.46;59.39
12793;BME280;6460;42.684;23.260;2022-08-07T01:31:03;94334.03;;;24.45;59.38
12793;BME280;6460;42.684;23.260;2022-08-07T01:33:31;94338.69;;;24.36;59.79
12793;BME280;6460;42.684;23.260;2022-08-07T01:35:59;94331.06;;;24.31;60.02
12793;BME280;6460;42.684;23.260;2022-08-07T01:38:29;94326.47;;;24.28;60.41
12793;BME280;6460;42.684;23.260;2022-08-07T01:40:58;94330.72;;;24.29;60.06
12793;BME280;6460;42.684;23.260;2022-08-07T01:43:27;94344.22;;;24.14;61.01
12793;BME280;6460;42.684;23.260;2022-08-07T01:45:56;94348.81;;;24.17;60.63
12793;BME280;6460;42.684;23.260;2022-08-07T01:48:24;94352.00;;;24.15;60.73
12793;BME280;6460;42.684;23.260;2022-08-07T01:50:55;94361.81;;;24.26;60.37
12793;BME280;6460;42.684;23.260;2022-08-07T01:53:24;94369.13;;;24.19;60.53
12793;BME280;6460;42.684;23.260;2022-08-07T01:55:57;94376.47;;;24.22;60.44
12793;BME280;6460;42.684;23.260;2022-08-07T01:58:30;94394.41;;;24.36;60.19
12793;BME280;6460;42.684;23.260;2022-08-07T02:01:02;94406.22;;;24.46;60.46
12793;BME280;6460;42.684;23.260;2022-08-07T02:03:32;94431.25;;;24.48;60.52
12793;BME280;6460;42.684;23.260;2022-08-07T02:06:03;94436.50;;;24.33;61.28
12793;BME280;6460;42.684;23.260;2022-08-07T02:08:34;94443.03;;;23.92;62.12
12793;BME280;6460;42.684;23.260;2022-08-07T02:11:08;94437.38;;;23.49;63.44
12793;BME280;6460;42.684;23.260;2022-08-07T02:13:36;94435.63;;;23.30;64.31
12793;BME280;6460;42.684;23.260;2022-08-07T02:16:05;94440.34;;;23.04;66.00
12793;BME280;6460;42.684;23.260;2022-08-07T02:18:35;94442.88;;;22.98;66.28
12793;BME280;6460;42.684;23.260;2022-08-07T02:21:05;94444.41;;;22.74;67.43
12793;BME280;6460;42.684;23.260;2022-08-07T02:23:37;94452.84;;;22.51;68.90
12793;BME280;6460;42.684;23.260;2022-08-07T02:26:07;94442.88;;;22.86;68.02
12793;BME280;6460;42.684;23.260;2022-08-07T02:28:36;94439.19;;;22.63;70.03
12793;BME280;6460;42.684;23.260;2022-08-07T02:31:05;94416.25;;;22.45;70.67
12793;BME280;6460;42.684;23.260;2022-08-07T02:33:35;94405.63;;;22.59;71.05
12793;BME280;6460;42.684;23.260;2022-08-07T02:36:04;94398.78;;;22.26;73.87
12793;BME280;6460;42.684;23.260;2022-08-07T02:38:36;94383.00;;;22.18;74.83
12793;BME280;6460;42.684;23.260;2022-08-07T02:41:04;94363.72;;;22.21;76.22
12793;BME280;6460;42.684;23.260;2022-08-07T02:43:35;94357.97;;;22.57;74.45
12793;BME280;6460;42.684;23.260;2022-08-07T02:46:03;94358.78;;;22.83;73.84
12793;BME280;6460;42.684;23.260;2022-08-07T02:48:32;94355.38;;;22.91;73.38
12793;BME280;6460;42.684;23.260;2022-08-07T02:51:02;94358.00;;;23.07;73.06
12793;BME280;6460;42.684;23.260;2022-08-07T02:53:32;94371.81;;;23.16;74.85
12793;BME280;6460;42.684;23.260;2022-08-07T02:56:01;94369.19;;;23.26;75.72
12793;BME280;6460;42.684;23.260;2022-08-07T02:58:30;94361.50;;;23.20;75.18
12793;BME280;6460;42.684;23.260;2022-08-07T03:01:01;94365.09;;;23.30;74.43
12793;BME280;6460;42.684;23.260;2022-08-07T03:03:32;94361.03;;;23.47;74.50
12793;BME280;6460;42.684;23.260;2022-08-07T03:06:00;94349.19;;;23.50;76.15
12793;BME280;6460;42.684;23.260;2022-08-07T03:08:28;94342.16;;;23.37;75.26
12793;BME280;6460;42.684;23.260;2022-08-07T03:10:56;94340.06;;;23.53;73.89
12793;BME280;6460;42.684;23.260;2022-08-07T03:13:24;94330.41;;;22.89;76.54
12793;BME280;6460;42.684;23.260;2022-08-07T03:15:51;94346.03;;;23.14;74.45
12793;BME280;6460;42.684;23.260;2022-08-07T03:18:21;94335.91;;;23.36;74.28
12793;BME280;6460;42.684;23.260;2022-08-07T03:20:48;94332.72;;;23.38;75.06
12793;BME280;6460;42.684;23.260;2022-08-07T03:23:17;94338.75;;;23.58;75.53
12793;BME280;6460;42.684;23.260;2022-08-07T03:25:45;94341.97;;;23.65;76.10
12793;BME280;6460;42.684;23.260;2022-08-07T03:28:15;94352.47;;;23.58;78.55
12793;BME280;6460;42.684;23.260;2022-08-07T03:30:44;94352.94;;;23.31;80.25
12793;BME280;6460;42.684;23.260;2022-08-07T03:33:12;94349.13;;;23.16;79.04
12793;BME280;6460;42.684;23.260;2022-08-07T03:35:44;94357.69;;;22.93;80.04
12793;BME280;6460;42.684;23.260;2022-08-07T03:38:14;94353.19;;;22.74;81.48
12793;BME280;6460;42.684;23.260;2022-08-07T03:40:42;94356.78;;;22.58;83.07
12793;BME280;6460;42.684;23.260;2022-08-07T03:43:10;94354.38;;;22.60;83.41
12793;BME280;6460;42.684;23.260;2022-08-07T03:45:37;94356.88;;;22.54;82.98
12793;BME280;6460;42.684;23.260;2022-08-07T03:48:05;94358.75;;;22.57;82.80
12793;BME280;6460;42.684;23.260;2022-08-07T03:50:34;94364.28;;;22.70;82.59
12793;BME280;6460;42.684;23.260;2022-08-07T03:53:03;94372.75;;;22.59;82.36
12793;BME280;6460;42.684;23.260;2022-08-07T03:55:32;94383.63;;;22.63;82.54
12793;BME280;6460;42.684;23.260;2022-08-07T03:57:59;94381.06;;;22.43;83.05
12793;BME280;6460;42.684;23.260;2022-08-07T04:00:28;94385.16;;;22.64;82.47
12793;BME280;6460;42.684;23.260;2022-08-07T04:02:57;94384.66;;;22.82;81.26
12793;BME280;6460;42.684;23.260;2022-08-07T04:05:24;94392.34;;;22.99;81.47
12793;BME280;6460;42.684;23.260;2022-08-07T04:07:51;94388.72;;;23.02;80.88
12793;BME280;6460;42.684;23.260;2022-08-07T04:10:21;94388.41;;;23.00;80.33
12793;BME280;6460;42.684;23.260;2022-08-07T04:12:49;94384.97;;;23.22;79.33
12793;BME280;6460;42.684;23.260;2022-08-07T04:15:17;94383.19;;;22.64;82.65
12793;BME280;6460;42.684;23.260;2022-08-07T04:17:45;94383.78;;;22.85;81.74
12793;BME280;6460;42.684;23.260;2022-08-07T04:20:12;94380.03;;;23.04;80.31
12793;BME280;6460;42.684;23.260;2022-08-07T04:22:40;94382.00;;;23.29;79.10
12793;BME280;6460;42.684;23.260;2022-08-07T04:25:08;94386.16;;;23.46;78.48
12793;BME280;6460;42.684;23.260;2022-08-07T04:27:37;94391.88;;;23.51;78.36
12793;BME280;6460;42.684;23.260;2022-08-07T04:30:05;94395.84;;;23.72;77.25
12793;BME280;6460;42.684;23.260;2022-08-07T04:32:33;94397.03;;;23.84;76.62
12793;BME280;6460;42.684;23.260;2022-08-07T04:35:02;94399.41;;;23.94;76.17
12793;BME280;6460;42.684;23.260;2022-08-07T04:37:31;94401.31;;;24.06;75.27
12793;BME280;6460;42.684;23.260;2022-08-07T04:39:58;94404.63;;;24.14;75.51
12793;BME280;6460;42.684;23.260;2022-08-07T04:42:25;94407.16;;;24.08;75.23
12793;BME280;6460;42.684;23.260;2022-08-07T04:45:00;94409.09;;;24.20;74.79
12793;BME280;6460;42.684;23.260;2022-08-07T04:47:34;94411.25;;;24.26;74.18
12793;BME280;6460;42.684;23.260;2022-08-07T04:50:08;94410.00;;;24.17;74.76
12793;BME280;6460;42.684;23.260;2022-08-07T04:52:42;94415.31;;;23.99;75.57
12793;BME280;6460;42.684;23.260;2022-08-07T04:55:17;94411.69;;;23.55;76.70
12793;BME280;6460;42.684;23.260;2022-08-07T04:57:51;94413.50;;;23.84;75.99
12793;BME280;6460;42.684;23.260;2022-08-07T05:00:29;94417.06;;;24.06;75.43
12793;BME280;6460;42.684;23.260;2022-08-07T05:03:04;94423.34;;;23.34;77.98
12793;BME280;6460;42.684;23.260;2022-08-07T05:05:41;94420.25;;;24.04;75.62
12793;BME280;6460;42.684;23.260;2022-08-07T05:08:13;94426.53;;;24.48;74.31
12793;BME280;6460;42.684;23.260;2022-08-07T05:10:46;94427.34;;;24.58;73.55
12793;BME280;6460;42.684;23.260;2022-08-07T05:13:19;94421.78;;;24.70;73.48
12793;BME280;6460;42.684;23.260;2022-08-07T05:15:49;94432.47;;;24.68;72.98
12793;BME280;6460;42.684;23.260;2022-08-07T05:18:20;94426.13;;;24.81;71.07
12793;BME280;6460;42.684;23.260;2022-08-07T05:20:50;94429.00;;;24.77;71.93
12793;BME280;6460;42.684;23.260;2022-08-07T05:23:24;94438.78;;;24.78;72.72
12793;BME280;6460;42.684;23.260;2022-08-07T05:25:52;94428.78;;;24.84;72.58
12793;BME280;6460;42.684;23.260;2022-08-07T05:28:21;94430.75;;;24.84;71.80
12793;BME280;6460;42.684;23.260;2022-08-07T05:30:51;94432.94;;;24.89;71.52
12793;BME280;6460;42.684;23.260;2022-08-07T05:33:19;94424.38;;;24.96;71.55
12793;BME280;6460;42.684;23.260;2022-08-07T05:35:47;94428.25;;;24.98;71.50
12793;BME280;6460;42.684;23.260;2022-08-07T05:38:16;94435.97;;;25.21;71.27
12793;BME280;6460;42.684;23.260;2022-08-07T05:40:44;94432.97;;;25.38;70.22
12793;BME280;6460;42.684;23.260;2022-08-07T05:43:11;94435.53;;;25.32;70.24
12793;BME280;6460;42.684;23.260;2022-08-07T05:45:40;94439.78;;;25.24;70.98
12793;BME280;6460;42.684;23.260;2022-08-07T05:48:10;94444.41;;;25.27;71.29
12793;BME280;6460;42.684;23.260;2022-08-07T05:50:37;94452.69;;;25.36;70.96
12793;BME280;6460;42.684;23.260;2022-08-07T05:53:05;94452.91;;;25.51;70.55
12793;BME280;6460;42.684;23.260;2022-08-07T05:55:33;94460.75;;;25.61;70.09
12793;BME280;6460;42.684;23.260;2022-08-07T05:58:01;94469.09;;;25.49;69.24
12793;BME280;6460;42.684;23.260;2022-08-07T06:00:29;94475.59;;;25.73;68.73
12793;BME280;6460;42.684;23.260;2022-08-07T06:02:58;94472.88;;;25.91;68.07
12793;BME280;6460;42.684;23.260;2022-08-07T06:05:27;94476.88;;;25.99;68.25
12793;BME280;6460;42.684;23.260;2022-08-07T06:07:58;94478.88;;;26.08;68.13
12793;BME280;6460;42.684;23.260;2022-08-07T06:10:26;94478.09;;;26.07;68.20
12793;BME280;6460;42.684;23.260;2022-08-07T06:12:53;94478.88;;;26.08;68.07
12793;BME280;6460;42.684;23.260;2022-08-07T06:15:21;94481.78;;;26.13;67.78
12793;BME280;6460;42.684;23.260;2022-08-07T06:17:50;94478.19;;;26.25;66.99
12793;BME280;6460;42.684;23.260;2022-08-07T06:20:18;94475.72;;;26.27;64.95
12793;BME280;6460;42.684;23.260;2022-08-07T06:22:47;94482.00;;;26.64;63.34
12793;BME280;6460;42.684;23.260;2022-08-07T06:25:15;94482.72;;;26.74;63.93
12793;BME280;6460;42.684;23.260;2022-08-07T06:27:42;94475.84;;;26.78;62.74
12793;BME280;6460;42.684;23.260;2022-08-07T06:30:10;94480.91;;;26.62;61.72
12793;BME280;6460;42.684;23.260;2022-08-07T06:32:37;94479.22;;;26.73;60.28
12793;BME280;6460;42.684;23.260;2022-08-07T06:35:04;94474.47;;;26.92;59.84
12793;BME280;6460;42.684;23.260;2022-08-07T06:37:31;94473.59;;;27.28;59.03
12793;BME280;6460;42.684;23.260;2022-08-07T06:40:00;94470.16;;;27.00;60.06
12793;BME280;6460;42.684;23.260;2022-08-07T06:42:32;94473.41;;;27.31;59.11
12793;BME280;6460;42.684;23.260;2022-08-07T06:45:03;94465.06;;;27.59;58.78
12793;BME280;6460;42.684;23.260;2022-08-07T06:47:33;94468.81;;;27.47;58.90
12793;BME280;6460;42.684;23.260;2022-08-07T06:50:00;94462.63;;;27.52;59.12
12793;BME280;6460;42.684;23.260;2022-08-07T06:52:30;94464.78;;;27.57;57.90
12793;BME280;6460;42.684;23.260;2022-08-07T06:55:01;94469.91;;;27.31;58.79
12793;BME280;6460;42.684;23.260;2022-08-07T06:57:29;94474.34;;;27.28;58.32
12793;BME280;6460;42.684;23.260;2022-08-07T06:59:58;94471.75;;;27.34;57.59
12793;BME280;6460;42.684;23.260;2022-08-07T07:02:26;94473.09;;;27.39;58.00
12793;BME280;6460;42.684;23.260;2022-08-07T07:04:54;94475.44;;;27.31;57.12
12793;BME280;6460;42.684;23.260;2022-08-07T07:07:22;94468.81;;;27.47;56.43
12793;BME280;6460;42.684;23.260;2022-08-07T07:09:49;94468.53;;;27.68;56.13
12793;BME280;6460;42.684;23.260;2022-08-07T07:12:25;94468.59;;;27.83;55.42
12793;BME280;6460;42.684;23.260;2022-08-07T07:15:02;94471.63;;;27.94;53.81
12793;BME280;6460;42.684;23.260;2022-08-07T07:17:34;94472.06;;;27.93;54.08
12793;BME280;6460;42.684;23.260;2022-08-07T07:20:06;94476.28;;;28.12;51.89
12793;BME280;6460;42.684;23.260;2022-08-07T07:22:34;94469.22;;;28.34;51.67
12793;BME280;6460;42.684;23.260;2022-08-07T07:25:03;94468.41;;;28.43;53.02
12793;BME280;6460;42.684;23.260;2022-08-07T07:27:34;94476.13;;;28.54;52.25
12793;BME280;6460;42.684;23.260;2022-08-07T07:30:05;94476.47;;;28.47;52.08
12793;BME280;6460;42.684;23.260;2022-08-07T07:32:34;94471.41;;;28.69;52.58
12793;BME280;6460;42.684;23.260;2022-08-07T07:35:03;94473.44;;;28.83;52.30
12793;BME280;6460;42.684;23.260;2022-08-07T07:37:33;94477.91;;;28.95;51.89
12793;BME280;6460;42.684;23.260;2022-08-07T07:40:05;94470.84;;;29.23;51.80
12793;BME280;6460;42.684;23.260;2022-08-07T07:42:35;94470.00;;;29.17;50.75
12793;BME280;6460;42.684;23.260;2022-08-07T07:45:03;94468.84;;;29.24;48.79
12793;BME280;6460;42.684;23.260;2022-08-07T07:47:34;94471.63;;;29.09;47.77
12793;BME280;6460;42.684;23.260;2022-08-07T07:50:02;94473.34;;;28.92;48.71
12793;BME280;6460;42.684;23.260;2022-08-07T07:52:31;94476.59;;;29.05;47.62
12793;BME280;6460;42.684;23.260;2022-08-07T07:54:59;94477.38;;;29.06;46.42
12793;BME280;6460;42.684;23.260;2022-08-07T07:57:27;94472.88;;;29.08;45.85
12793;BME280;6460;42.684;23.260;2022-08-07T07:59:57;94475.47;;;29.26;46.66
12793;BME280;6460;42.684;23.260;2022-08-07T08:02:26;94475.44;;;29.56;45.61
12793;BME280;6460;42.684;23.260;2022-08-07T08:04:55;94477.72;;;29.57;45.78
12793;BME280;6460;42.684;23.260;2022-08-07T08:07:22;94484.03;;;29.58;46.03
12793;BME280;6460;42.684;23.260;2022-08-07T08:09:51;94478.53;;;29.78;46.33
12793;BME280;6460;42.684;23.260;2022-08-07T08:12:19;94483.28;;;29.42;47.48
12793;BME280;6460;42.684;23.260;2022-08-07T08:14:46;94485.53;;;29.59;46.00
12793;BME280;6460;42.684;23.260;2022-08-07T08:17:15;94481.63;;;30.00;45.04
12793;BME280;6460;42.684;23.260;2022-08-07T08:19:42;94483.78;;;29.76;46.00
12793;BME280;6460;42.684;23.260;2022-08-07T08:22:12;94493.34;;;29.75;46.15
12793;BME280;6460;42.684;23.260;2022-08-07T08:24:57;94489.56;;;29.58;46.78
12793;BME280;6460;42.684;23.260;2022-08-07T08:27:43;94490.66;;;29.95;45.52
12793;BME280;6460;42.684;23.260;2022-08-07T08:30:12;94488.00;;;30.06;45.82
12793;BME280;6460;42.684;23.260;2022-08-07T08:32:43;94482.84;;;30.14;45.04
12793;BME280;6460;42.684;23.260;2022-08-07T08:35:15;94493.66;;;30.12;44.55
12793;BME280;6460;42.684;23.260;2022-08-07T08:37:45;94487.19;;;30.00;44.07
12793;BME280;6460;42.684;23.260;2022-08-07T08:40:17;94480.56;;;30.12;44.11
12793;BME280;6460;42.684;23.260;2022-08-07T08:42:51;94491.56;;;30.67;43.51
12793;BME280;6460;42.684;23.260;2022-08-07T08:45:23;94480.75;;;31.15;42.65
12793;BME280;6460;42.684;23.260;2022-08-07T08:48:02;94491.53;;;31.33;42.02
12793;BME280;6460;42.684;23.260;2022-08-07T08:50:31;94494.06;;;31.37;41.53
12793;BME280;6460;42.684;23.260;2022-08-07T08:53:04;94493.13;;;31.14;41.84
12793;BME280;6460;42.684;23.260;2022-08-07T08:55:36;94482.09;;;31.25;41.79
12793;BME280;6460;42.684;23.260;2022-08-07T08:58:09;94488.53;;;31.11;41.47
12793;BME280;6460;42.684;23.260;2022-08-07T09:00:41;94488.81;;;30.93;42.16
12793;BME280;6460;42.684;23.260;2022-08-07T09:03:18;94497.53;;;31.01;41.76
12793;BME280;6460;42.684;23.260;2022-08-07T09:05:53;94482.31;;;30.96;41.60
12793;BME280;6460;42.684;23.260;2022-08-07T09:08:28;94488.34;;;30.49;43.81
12793;BME280;6460;42.684;23.260;2022-08-07T09:11:16;94477.03;;;30.12;44.21
12793;BME280;6460;42.684;23.260;2022-08-07T09:13:56;94480.13;;;29.99;45.06
12793;BME280;6460;42.684;23.260;2022-08-07T09:16:33;94484.78;;;30.28;45.30
12793;BME280;6460;42.684;23.260;2022-08-07T09:19:14;94481.75;;;30.46;44.20
12793;BME280;6460;42.684;23.260;2022-08-07T09:21:48;94472.47;;;30.49;42.54
12793;BME280;6460;42.684;23.260;2022-08-07T09:24:28;94475.69;;;30.68;42.20
12793;BME280;6460;42.684;23.260;2022-08-07T09:27:05;94484.06;;;31.19;40.68
12793;BME280;6460;42.684;23.260;2022-08-07T09:29:43;94466.84;;;31.46;41.12
12793;BME280;6460;42.684;23.260;2022-08-07T09:32:20;94470.56;;;31.64;40.59
12793;BME280;6460;42.684;23.260;2022-08-07T09:34:59;94469.03;;;31.63;39.82
12793;BME280;6460;42.684;23.260;2022-08-07T09:37:35;94469.31;;;31.65;40.08
12793;BME280;6460;42.684;23.260;2022-08-07T09:40:11;94452.19;;;31.72;38.56
12793;BME280;6460;42.684;23.260;2022-08-07T09:42:48;94455.72;;;32.09;37.43
12793;BME280;6460;42.684;23.260;2022-08-07T09:45:26;94469.28;;;32.02;37.64
12793;BME280;6460;42.684;23.260;2022-08-07T09:48:08;94462.19;;;32.00;38.18
12793;BME280;6460;42.684;23.260;2022-08-07T09:50:49;94450.03;;;32.40;38.09
12793;BME280;6460;42.684;23.260;2022-08-07T09:53:20;94449.16;;;32.88;36.08
12793;BME280;6460;42.684;23.260;2022-08-07T09:56:08;94446.63;;;32.79;34.86
12793;BME280;6460;42.684;23.260;2022-08-07T09:58:56;94444.69;;;33.18;35.66
12793;BME280;6460;42.684;23.260;2022-08-07T10:04:27;94438.63;;;33.36;35.77
12793;BME280;6460;42.684;23.260;2022-08-07T10:07:16;94434.28;;;33.58;34.39
12793;BME280;6460;42.684;23.260;2022-08-07T10:09:58;94441.41;;;33.53;34.97
12793;BME280;6460;42.684;23.260;2022-08-07T10:12:46;94438.88;;;33.61;33.28
12793;BME280;6460;42.684;23.260;2022-08-07T10:15:35;94435.81;;;33.42;33.62
12793;BME280;6460;42.684;23.260;2022-08-07T10:18:21;94426.16;;;33.76;32.97
12793;BME280;6460;42.684;23.260;2022-08-07T10:21:01;94418.84;;;33.40;33.47
12793;BME280;6460;42.684;23.260;2022-08-07T10:23:52;94411.75;;;33.72;32.36
12793;BME280;6460;42.684;23.260;2022-08-07T10:26:35;94405.38;;;33.77;32.33
12793;BME280;6460;42.684;23.260;2022-08-07T10:29:23;94434.22;;;34.08;32.40
12793;BME280;6460;42.684;23.260;2022-08-07T10:31:59;94418.84;;;33.68;32.92
12793;BME280;6460;42.684;23.260;2022-08-07T10:34:44;94425.44;;;33.15;32.73
12793;BME280;6460;42.684;23.260;2022-08-07T10:37:28;94429.91;;;32.79;34.46
12793;BME280;6460;42.684;23.260;2022-08-07T10:40:07;94434.97;;;32.64;35.97
12793;BME280;6460;42.684;23.260;2022-08-07T10:42:39;94429.41;;;32.75;36.17
12793;BME280;6460;42.684;23.260;2022-08-07T10:45:17;94429.44;;;32.97;36.26
12793;BME280;6460;42.684;23.260;2022-08-07T10:47:47;94441.16;;;32.36;35.82
12793;BME280;6460;42.684;23.260;2022-08-07T10:50:21;94435.88;;;32.38;35.91
12793;BME280;6460;42.684;23.260;2022-08-07T10:53:00;94429.53;;;32.43;36.58
12793;BME280;6460;42.684;23.260;2022-08-07T10:55:41;94442.44;;;32.35;37.02
12793;BME280;6460;42.684;23.260;2022-08-07T10:58:30;94435.25;;;32.12;36.87
12793;BME280;6460;42.684;23.260;2022-08-07T11:01:28;94447.69;;;31.80;37.62
12793;BME280;6460;42.684;23.260;2022-08-07T11:04:04;94435.03;;;31.79;38.27
12793;BME280;6460;42.684;23.260;2022-08-07T11:06:43;94442.03;;;31.69;38.28
12793;BME280;6460;42.684;23.260;2022-08-07T11:09:18;94426.38;;;31.03;38.55
12793;BME280;6460;42.684;23.260;2022-08-07T11:11:52;94442.22;;;30.77;39.21
12793;BME280;6460;42.684;23.260;2022-08-07T11:14:27;94443.88;;;30.63;39.84
12793;BME280;6460;42.684;23.260;2022-08-07T11:17:00;94437.91;;;30.96;40.27
12793;BME280;6460;42.684;23.260;2022-08-07T11:19:35;94431.22;;;31.39;39.27
12793;BME280;6460;42.684;23.260;2022-08-07T11:22:08;94435.50;;;31.72;39.55
12793;BME280;6460;42.684;23.260;2022-08-07T11:24:41;94414.84;;;31.84;38.52
12793;BME280;6460;42.684;23.260;2022-08-07T11:27:19;94413.03;;;32.23;38.05
12793;BME280;6460;42.684;23.260;2022-08-07T11:29:51;94412.47;;;32.95;36.62
12793;BME280;6460;42.684;23.260;2022-08-07T11:32:29;94402.63;;;33.16;36.16
12793;BME280;6460;42.684;23.260;2022-08-07T11:35:02;94409.94;;;32.91;35.40
12793;BME280;6460;42.684;23.260;2022-08-07T11:37:57;94409.22;;;33.13;34.35
12793;BME280;6460;42.684;23.260;2022-08-07T11:40:38;94426.97;;;33.43;32.30
12793;BME280;6460;42.684;23.260;2022-08-07T11:43:14;94422.13;;;33.77;32.67
12793;BME280;6460;42.684;23.260;2022-08-07T11:48:59;94430.94;;;32.76;36.69
12793;BME280;6460;42.684;23.260;2022-08-07T11:51:41;94439.69;;;31.98;37.85
12793;BME280;6460;42.684;23.260;2022-08-07T11:54:37;94442.97;;;31.55;39.02
12793;BME280;6460;42.684;23.260;2022-08-07T11:57:15;94439.81;;;31.41;39.40
12793;BME280;6460;42.684;23.260;2022-08-07T11:59:57;94444.03;;;31.63;39.52
12793;BME280;6460;42.684;23.260;2022-08-07T12:05:23;94419.56;;;32.85;38.13
12793;BME280;6460;42.684;23.260;2022-08-07T12:07:55;94425.44;;;33.53;36.67
12793;BME280;6460;42.684;23.260;2022-08-07T12:10:29;94426.47;;;33.50;36.97
12793;BME280;6460;42.684;23.260;2022-08-07T12:13:02;94429.47;;;33.80;36.72
12793;BME280;6460;42.684;23.260;2022-08-07T12:15:33;94435.78;;;33.97;35.86
12793;BME280;6460;42.684;23.260;2022-08-07T12:18:13;94428.19;;;33.81;36.25
12793;BME280;6460;42.684;23.260;2022-08-07T12:20:46;94434.75;;;33.89;35.90
12793;BME280;6460;42.684;23.260;2022-08-07T12:23:21;94429.78;;;33.60;36.99
12793;BME280;6460;42.684;23.260;2022-08-07T12:25:53;94426.44;;;33.23;37.48
12793;BME280;6460;42.684;23.260;2022-08-07T12:28:27;94435.06;;;33.47;36.75
12793;BME280;6460;42.684;23.260;2022-08-07T12:31:00;94426.91;;;33.05;36.65
12793;BME280;6460;42.684;23.260;2022-08-07T12:33:30;94419.09;;;33.64;35.29
12793;BME280;6460;42.684;23.260;2022-08-07T12:35:59;94419.03;;;33.97;34.64
12793;BME280;6460;42.684;23.260;2022-08-07T12:38:28;94414.66;;;34.19;33.57
12793;BME280;6460;42.684;23.260;2022-08-07T12:40:58;94417.53;;;34.60;33.53
12793;BME280;6460;42.684;23.260;2022-08-07T12:43:29;94404.41;;;34.43;33.52
12793;BME280;6460;42.684;23.260;2022-08-07T12:46:08;94408.31;;;34.18;34.12
12793;BME280;6460;42.684;23.260;2022-08-07T12:48:45;94401.25;;;34.12;35.31
12793;BME280;6460;42.684;23.260;2022-08-07T12:51:15;94403.78;;;34.10;35.41
12793;BME280;6460;42.684;23.260;2022-08-07T12:53:50;94416.53;;;34.63;33.09
12793;BME280;6460;42.684;23.260;2022-08-07T12:56:25;94407.28;;;34.27;31.22
12793;BME280;6460;42.684;23.260;2022-08-07T12:58:55;94411.69;;;33.89;32.38
12793;BME280;6460;42.684;23.260;2022-08-07T13:01:48;94410.47;;;33.73;33.56
12793;BME280;6460;42.684;23.260;2022-08-07T13:04:28;94400.09;;;33.63;34.26
12793;BME280;6460;42.684;23.260;2022-08-07T13:07:19;94412.75;;;33.41;34.08
12793;BME280;6460;42.684;23.260;2022-08-07T13:13:08;94399.03;;;33.88;33.60
12793;BME280;6460;42.684;23.260;2022-08-07T13:15:44;94411.44;;;33.92;32.69
12793;BME280;6460;42.684;23.260;2022-08-07T13:18:23;94401.06;;;33.76;32.96
12793;BME280;6460;42.684;23.260;2022-08-07T13:21:01;94409.59;;;34.23;32.00
12793;BME280;6460;42.684;23.260;2022-08-07T13:23:38;94392.09;;;34.22;31.45
12793;BME280;6460;42.684;23.260;2022-08-07T13:26:13;94390.88;;;34.01;31.61
12793;BME280;6460;42.684;23.260;2022-08-07T13:28:46;94392.38;;;34.02;31.70
12793;BME280;6460;42.684;23.260;2022-08-07T13:31:20;94398.44;;;34.23;31.51
12793;BME280;6460;42.684;23.260;2022-08-07T13:33:56;94391.25;;;34.38;30.94
12793;BME280;6460;42.684;23.260;2022-08-07T13:36:29;94387.34;;;34.64;30.96
12793;BME280;6460;42.684;23.260;2022-08-07T13:39:01;94401.91;;;34.34;30.88